sensor_id;sensor_type;location;lat;lon;timestamp;P1;durP1;ratioP1;P2;durP2;ratioP2
5819;SDS011;2936;47.348;9.640;2022-08-21T00:01:53;3.07;;;2.87;;
5819;SDS011;2936;47.348;9.640;2022-08-21T00:04:21;7.27;;;2.80;;
5819;SDS011;2936;47.348;9.640;2022-08-21T00:06:48;2.73;;;2.63;;
5819;SDS011;2936;47.348;9.640;2022-08-21T00:09:16;2.47;;;2.37;;
5819;SDS011;2936;47.348;9.640;2022-08-21T00:11:43;2.70;;;2.60;;
5819;SDS011;2936;47.348;9.640;2022-08-21T00:14:13;2.40;;;2.30;;
5819;SDS011;2936;47.348;9.640;2022-08-21T00:16:41;2.73;;;2.63;;
5819;SDS011;2936;47.348;9.640;2022-08-21T00:19:10;3.40;;;2.67;;
5819;SDS011;2936;47.348;9.640;2022-08-21T00:21:38;2.40;;;2.30;;
5819;SDS011;2936;47.348;9.640;2022-08-21T00:24:05;2.47;;;2.37;;
5819;SDS011;2936;47.348;9.640;2022-08-21T00:26:34;2.57;;;2.47;;
5819;SDS011;2936;47.348;9.640;2022-08-21T00:29:01;4.80;;;2.87;;
5819;SDS011;2936;47.348;9.640;2022-08-21T00:31:30;2.60;;;2.50;;
5819;SDS011;2936;47.348;9.640;2022-08-21T00:33:58;2.80;;;2.70;;
5819;SDS011;2936;47.348;9.640;2022-08-21T00:36:38;2.80;;;2.60;;
5819;SDS011;2936;47.348;9.640;2022-08-21T00:39:07;3.10;;;2.90;;
5819;SDS011;2936;47.348;9.640;2022-08-21T00:41:42;3.10;;;3.00;;
5819;SDS011;2936;47.348;9.640;2022-08-21T00:44:12;2.70;;;2.60;;
5819;SDS011;2936;47.348;9.640;2022-08-21T00:46:41;2.50;;;2.40;;
5819;SDS011;2936;47.348;9.640;2022-08-21T00:49:25;2.73;;;2.53;;
5819;SDS011;2936;47.348;9.640;2022-08-21T00:51:56;2.97;;;2.70;;
5819;SDS011;2936;47.348;9.640;2022-08-21T00:54:24;2.53;;;2.43;;
5819;SDS011;2936;47.348;9.640;2022-08-21T00:56:53;2.53;;;2.43;;
5819;SDS011;2936;47.348;9.640;2022-08-21T00:59:21;3.17;;;2.80;;
5819;SDS011;2936;47.348;9.640;2022-08-21T01:01:50;2.90;;;2.80;;
5819;SDS011;2936;47.348;9.640;2022-08-21T01:04:33;2.33;;;2.10;;
5819;SDS011;2936;47.348;9.640;2022-08-21T01:07:02;2.80;;;2.70;;
5819;SDS011;2936;47.348;9.640;2022-08-21T01:09:30;3.40;;;2.50;;
5819;SDS011;2936;47.348;9.640;2022-08-21T01:11:57;3.10;;;2.60;;
5819;SDS011;2936;47.348;9.640;2022-08-21T01:14:25;2.30;;;2.20;;
5819;SDS011;2936;47.348;9.640;2022-08-21T01:16:53;2.33;;;2.23;;
5819;SDS011;2936;47.348;9.640;2022-08-21T01:19:22;2.60;;;2.50;;
5819;SDS011;2936;47.348;9.640;2022-08-21T01:21:51;2.40;;;2.30;;
5819;SDS011;2936;47.348;9.640;2022-08-21T01:24:19;2.50;;;2.40;;
5819;SDS011;2936;47.348;9.640;2022-08-21T01:26:47;2.17;;;2.07;;
5819;SDS011;2936;47.348;9.640;2022-08-21T01:29:20;3.43;;;2.20;;
5819;SDS011;2936;47.348;9.640;2022-08-21T01:31:50;2.70;;;2.50;;
5819;SDS011;2936;47.348;9.640;2022-08-21T01:34:17;2.33;;;2.20;;
5819;SDS011;2936;47.348;9.640;2022-08-21T01:36:45;2.30;;;2.10;;
5819;SDS011;2936;47.348;9.640;2022-08-21T01:39:14;2.47;;;2.27;;
5819;SDS011;2936;47.348;9.640;2022-08-21T01:41:42;4.13;;;2.70;;
5819;SDS011;2936;47.348;9.640;2022-08-21T01:44:09;2.33;;;2.23;;
5819;SDS011;2936;47.348;9.640;2022-08-21T01:46:37;2.10;;;2.00;;
5819;SDS011;2936;47.348;9.640;2022-08-21T01:49:05;2.17;;;2.07;;
5819;SDS011;2936;47.348;9.640;2022-08-21T01:51:33;2.53;;;2.43;;
5819;SDS011;2936;47.348;9.640;2022-08-21T01:54:00;3.33;;;2.27;;
5819;SDS011;2936;47.348;9.640;2022-08-21T01:56:29;2.40;;;2.30;;
5819;SDS011;2936;47.348;9.640;2022-08-21T01:59:02;3.27;;;2.40;;
5819;SDS011;2936;47.348;9.640;2022-08-21T02:01:29;2.40;;;2.30;;
5819;SDS011;2936;47.348;9.640;2022-08-21T02:03:56;2.50;;;2.30;;
5819;SDS011;2936;47.348;9.640;2022-08-21T02:06:25;4.00;;;2.33;;
5819;SDS011;2936;47.348;9.640;2022-08-21T02:08:52;2.67;;;2.57;;
5819;SDS011;2936;47.348;9.640;2022-08-21T02:11:20;3.57;;;2.43;;
5819;SDS011;2936;47.348;9.640;2022-08-21T02:13:49;2.40;;;2.30;;
5819;SDS011;2936;47.348;9.640;2022-08-21T02:16:16;2.40;;;2.30;;
5819;SDS011;2936;47.348;9.640;2022-08-21T02:18:43;2.00;;;1.90;;
5819;SDS011;2936;47.348;9.640;2022-08-21T02:21:11;2.20;;;2.10;;
5819;SDS011;2936;47.348;9.640;2022-08-21T02:23:38;2.23;;;2.13;;
5819;SDS011;2936;47.348;9.640;2022-08-21T02:26:06;2.10;;;2.00;;
5819;SDS011;2936;47.348;9.640;2022-08-21T02:28:35;1.97;;;1.87;;
5819;SDS011;2936;47.348;9.640;2022-08-21T02:31:04;2.30;;;2.20;;
5819;SDS011;2936;47.348;9.640;2022-08-21T02:33:32;3.50;;;1.97;;
5819;SDS011;2936;47.348;9.640;2022-08-21T02:35:59;1.93;;;1.83;;
5819;SDS011;2936;47.348;9.640;2022-08-21T02:38:28;2.97;;;2.33;;
5819;SDS011;2936;47.348;9.640;2022-08-21T02:40:56;1.80;;;1.70;;
5819;SDS011;2936;47.348;9.640;2022-08-21T02:43:24;1.90;;;1.80;;
5819;SDS011;2936;47.348;9.640;2022-08-21T02:45:51;1.83;;;1.83;;
5819;SDS011;2936;47.348;9.640;2022-08-21T02:48:21;2.50;;;2.30;;
5819;SDS011;2936;47.348;9.640;2022-08-21T02:50:51;2.50;;;2.20;;
5819;SDS011;2936;47.348;9.640;2022-08-21T02:53:19;2.03;;;1.93;;
5819;SDS011;2936;47.348;9.640;2022-08-21T02:55:48;2.60;;;2.50;;
5819;SDS011;2936;47.348;9.640;2022-08-21T02:58:16;2.03;;;1.93;;
5819;SDS011;2936;47.348;9.640;2022-08-21T03:00:44;4.27;;;2.73;;
5819;SDS011;2936;47.348;9.640;2022-08-21T03:03:11;2.20;;;2.10;;
5819;SDS011;2936;47.348;9.640;2022-08-21T03:05:41;2.13;;;2.00;;
5819;SDS011;2936;47.348;9.640;2022-08-21T03:08:09;2.00;;;1.90;;
5819;SDS011;2936;47.348;9.640;2022-08-21T03:10:37;4.20;;;1.90;;
5819;SDS011;2936;47.348;9.640;2022-08-21T03:13:04;1.93;;;1.83;;
5819;SDS011;2936;47.348;9.640;2022-08-21T03:15:32;11.33;;;1.80;;
5819;SDS011;2936;47.348;9.640;2022-08-21T03:17:59;5.33;;;2.10;;
5819;SDS011;2936;47.348;9.640;2022-08-21T03:20:28;4.20;;;1.90;;
5819;SDS011;2936;47.348;9.640;2022-08-21T03:22:59;2.00;;;1.90;;
5819;SDS011;2936;47.348;9.640;2022-08-21T03:25:28;5.17;;;2.00;;
5819;SDS011;2936;47.348;9.640;2022-08-21T03:27:57;3.33;;;2.40;;
5819;SDS011;2936;47.348;9.640;2022-08-21T03:30:24;2.57;;;2.37;;
5819;SDS011;2936;47.348;9.640;2022-08-21T03:32:55;3.07;;;2.87;;
5819;SDS011;2936;47.348;9.640;2022-08-21T03:35:22;8.53;;;2.90;;
5819;SDS011;2936;47.348;9.640;2022-08-21T03:37:50;4.13;;;2.47;;
5819;SDS011;2936;47.348;9.640;2022-08-21T03:40:20;2.00;;;1.90;;
5819;SDS011;2936;47.348;9.640;2022-08-21T03:42:51;2.30;;;2.20;;
5819;SDS011;2936;47.348;9.640;2022-08-21T03:45:19;2.43;;;2.23;;
5819;SDS011;2936;47.348;9.640;2022-08-21T03:47:51;2.23;;;2.13;;
5819;SDS011;2936;47.348;9.640;2022-08-21T03:50:19;2.10;;;1.93;;
5819;SDS011;2936;47.348;9.640;2022-08-21T03:52:48;2.13;;;2.03;;
5819;SDS011;2936;47.348;9.640;2022-08-21T03:55:31;13.43;;;2.30;;
5819;SDS011;2936;47.348;9.640;2022-08-21T03:57:59;1.95;;;1.85;;
5819;SDS011;2936;47.348;9.640;2022-08-21T04:00:26;2.63;;;2.20;;
5819;SDS011;2936;47.348;9.640;2022-08-21T04:02:54;2.40;;;2.30;;
5819;SDS011;2936;47.348;9.640;2022-08-21T04:05:22;1.87;;;1.77;;
5819;SDS011;2936;47.348;9.640;2022-08-21T04:07:59;4.10;;;2.10;;
5819;SDS011;2936;47.348;9.640;2022-08-21T04:10:28;2.40;;;2.30;;
5819;SDS011;2936;47.348;9.640;2022-08-21T04:12:57;2.20;;;2.10;;
5819;SDS011;2936;47.348;9.640;2022-08-21T04:15:26;2.20;;;2.10;;
5819;SDS011;2936;47.348;9.640;2022-08-21T04:17:54;2.30;;;2.20;;
5819;SDS011;2936;47.348;9.640;2022-08-21T04:20:22;2.50;;;2.40;;
5819;SDS011;2936;47.348;9.640;2022-08-21T04:22:51;2.20;;;2.10;;
5819;SDS011;2936;47.348;9.640;2022-08-21T04:25:20;2.53;;;2.43;;
5819;SDS011;2936;47.348;9.640;2022-08-21T04:27:47;3.38;;;2.40;;
5819;SDS011;2936;47.348;9.640;2022-08-21T04:30:17;2.73;;;2.53;;
5819;SDS011;2936;47.348;9.640;2022-08-21T04:32:49;4.70;;;2.83;;
5819;SDS011;2936;47.348;9.640;2022-08-21T04:35:18;2.40;;;2.30;;
5819;SDS011;2936;47.348;9.640;2022-08-21T04:37:46;3.27;;;2.97;;
5819;SDS011;2936;47.348;9.640;2022-08-21T04:40:14;2.63;;;2.45;;
5819;SDS011;2936;47.348;9.640;2022-08-21T04:42:42;4.30;;;2.10;;
5819;SDS011;2936;47.348;9.640;2022-08-21T04:45:15;2.27;;;2.17;;
5819;SDS011;2936;47.348;9.640;2022-08-21T04:47:46;2.47;;;2.37;;
5819;SDS011;2936;47.348;9.640;2022-08-21T04:50:13;5.20;;;2.50;;
5819;SDS011;2936;47.348;9.640;2022-08-21T04:52:41;4.50;;;2.00;;
5819;SDS011;2936;47.348;9.640;2022-08-21T04:55:08;2.50;;;2.40;;
5819;SDS011;2936;47.348;9.640;2022-08-21T04:57:36;2.20;;;2.10;;
5819;SDS011;2936;47.348;9.640;2022-08-21T05:00:07;2.20;;;2.10;;
5819;SDS011;2936;47.348;9.640;2022-08-21T05:02:35;2.30;;;2.20;;
5819;SDS011;2936;47.348;9.640;2022-08-21T05:05:06;3.63;;;2.60;;
5819;SDS011;2936;47.348;9.640;2022-08-21T05:07:34;8.30;;;2.77;;
5819;SDS011;2936;47.348;9.640;2022-08-21T05:10:02;4.13;;;2.50;;
5819;SDS011;2936;47.348;9.640;2022-08-21T05:12:30;2.72;;;2.60;;
5819;SDS011;2936;47.348;9.640;2022-08-21T05:14:58;2.63;;;2.38;;
5819;SDS011;2936;47.348;9.640;2022-08-21T05:17:26;3.10;;;2.90;;
5819;SDS011;2936;47.348;9.640;2022-08-21T05:19:54;2.50;;;2.40;;
5819;SDS011;2936;47.348;9.640;2022-08-21T05:22:23;3.87;;;3.07;;
5819;SDS011;2936;47.348;9.640;2022-08-21T05:24:50;3.30;;;3.20;;
5819;SDS011;2936;47.348;9.640;2022-08-21T05:27:18;3.00;;;2.90;;
5819;SDS011;2936;47.348;9.640;2022-08-21T05:29:46;3.22;;;3.00;;
5819;SDS011;2936;47.348;9.640;2022-08-21T05:32:13;2.90;;;2.80;;
5819;SDS011;2936;47.348;9.640;2022-08-21T05:34:41;3.60;;;2.50;;
5819;SDS011;2936;47.348;9.640;2022-08-21T05:37:10;3.08;;;2.88;;
5819;SDS011;2936;47.348;9.640;2022-08-21T05:39:39;2.70;;;2.43;;
5819;SDS011;2936;47.348;9.640;2022-08-21T05:42:06;2.70;;;2.50;;
5819;SDS011;2936;47.348;9.640;2022-08-21T05:44:34;2.70;;;2.60;;
5819;SDS011;2936;47.348;9.640;2022-08-21T05:47:02;3.20;;;2.90;;
5819;SDS011;2936;47.348;9.640;2022-08-21T05:49:30;8.20;;;2.33;;
5819;SDS011;2936;47.348;9.640;2022-08-21T05:51:57;2.40;;;2.30;;
5819;SDS011;2936;47.348;9.640;2022-08-21T05:54:24;5.40;;;2.37;;
5819;SDS011;2936;47.348;9.640;2022-08-21T05:56:53;2.53;;;2.43;;
5819;SDS011;2936;47.348;9.640;2022-08-21T05:59:21;2.70;;;2.60;;
5819;SDS011;2936;47.348;9.640;2022-08-21T06:01:48;5.13;;;3.23;;
5819;SDS011;2936;47.348;9.640;2022-08-21T06:04:17;2.60;;;2.17;;
5819;SDS011;2936;47.348;9.640;2022-08-21T06:06:45;2.57;;;2.47;;
5819;SDS011;2936;47.348;9.640;2022-08-21T06:09:13;2.83;;;2.27;;
5819;SDS011;2936;47.348;9.640;2022-08-21T06:11:41;2.00;;;1.90;;
5819;SDS011;2936;47.348;9.640;2022-08-21T06:14:09;2.50;;;2.40;;
5819;SDS011;2936;47.348;9.640;2022-08-21T06:16:38;2.20;;;2.10;;
5819;SDS011;2936;47.348;9.640;2022-08-21T06:19:05;5.97;;;2.27;;
5819;SDS011;2936;47.348;9.640;2022-08-21T06:21:33;2.53;;;2.33;;
5819;SDS011;2936;47.348;9.640;2022-08-21T06:24:00;2.40;;;1.97;;
5819;SDS011;2936;47.348;9.640;2022-08-21T06:26:27;3.57;;;2.20;;
5819;SDS011;2936;47.348;9.640;2022-08-21T06:28:55;2.10;;;2.00;;
5819;SDS011;2936;47.348;9.640;2022-08-21T06:31:24;5.27;;;1.50;;
5819;SDS011;2936;47.348;9.640;2022-08-21T06:33:52;3.20;;;1.70;;
5819;SDS011;2936;47.348;9.640;2022-08-21T06:36:20;1.67;;;1.57;;
5819;SDS011;2936;47.348;9.640;2022-08-21T06:38:47;1.60;;;1.60;;
5819;SDS011;2936;47.348;9.640;2022-08-21T06:41:14;1.40;;;1.40;;
5819;SDS011;2936;47.348;9.640;2022-08-21T06:43:42;1.60;;;1.60;;
5819;SDS011;2936;47.348;9.640;2022-08-21T06:46:09;1.57;;;1.37;;
5819;SDS011;2936;47.348;9.640;2022-08-21T06:48:38;2.27;;;1.53;;
5819;SDS011;2936;47.348;9.640;2022-08-21T06:51:05;2.20;;;1.53;;
5819;SDS011;2936;47.348;9.640;2022-08-21T06:53:33;1.80;;;1.70;;
5819;SDS011;2936;47.348;9.640;2022-08-21T06:56:00;1.40;;;1.40;;
5819;SDS011;2936;47.348;9.640;2022-08-21T06:58:28;1.40;;;1.40;;
5819;SDS011;2936;47.348;9.640;2022-08-21T07:00:56;2.40;;;1.60;;
5819;SDS011;2936;47.348;9.640;2022-08-21T07:03:25;3.60;;;1.30;;
5819;SDS011;2936;47.348;9.640;2022-08-21T07:05:54;1.47;;;1.47;;
5819;SDS011;2936;47.348;9.640;2022-08-21T07:08:23;1.40;;;1.40;;
5819;SDS011;2936;47.348;9.640;2022-08-21T07:10:51;1.83;;;1.73;;
5819;SDS011;2936;47.348;9.640;2022-08-21T07:13:19;1.43;;;1.40;;
5819;SDS011;2936;47.348;9.640;2022-08-21T07:15:46;1.47;;;1.47;;
5819;SDS011;2936;47.348;9.640;2022-08-21T07:18:14;2.30;;;1.40;;
5819;SDS011;2936;47.348;9.640;2022-08-21T07:20:42;1.37;;;1.37;;
5819;SDS011;2936;47.348;9.640;2022-08-21T07:23:12;1.50;;;1.40;;
5819;SDS011;2936;47.348;9.640;2022-08-21T07:25:42;4.80;;;1.57;;
5819;SDS011;2936;47.348;9.640;2022-08-21T07:28:10;2.10;;;1.50;;
5819;SDS011;2936;47.348;9.640;2022-08-21T07:30:37;1.57;;;1.47;;
5819;SDS011;2936;47.348;9.640;2022-08-21T07:33:04;2.57;;;1.33;;
5819;SDS011;2936;47.348;9.640;2022-08-21T07:35:32;1.50;;;1.50;;
5819;SDS011;2936;47.348;9.640;2022-08-21T07:37:59;2.10;;;1.67;;
5819;SDS011;2936;47.348;9.640;2022-08-21T07:40:28;1.43;;;1.37;;
5819;SDS011;2936;47.348;9.640;2022-08-21T07:42:55;1.73;;;1.63;;
5819;SDS011;2936;47.348;9.640;2022-08-21T07:45:23;2.97;;;1.50;;
5819;SDS011;2936;47.348;9.640;2022-08-21T07:47:54;2.00;;;1.80;;
5819;SDS011;2936;47.348;9.640;2022-08-21T07:50:21;1.53;;;1.53;;
5819;SDS011;2936;47.348;9.640;2022-08-21T07:52:49;2.37;;;1.50;;
5819;SDS011;2936;47.348;9.640;2022-08-21T07:55:17;1.60;;;1.50;;
5819;SDS011;2936;47.348;9.640;2022-08-21T07:57:48;1.30;;;1.30;;
5819;SDS011;2936;47.348;9.640;2022-08-21T08:00:16;1.83;;;1.30;;
5819;SDS011;2936;47.348;9.640;2022-08-21T08:02:45;1.10;;;1.10;;
5819;SDS011;2936;47.348;9.640;2022-08-21T08:05:14;1.50;;;1.40;;
5819;SDS011;2936;47.348;9.640;2022-08-21T08:07:42;1.40;;;1.40;;
5819;SDS011;2936;47.348;9.640;2022-08-21T08:10:10;3.17;;;3.07;;
5819;SDS011;2936;47.348;9.640;2022-08-21T08:12:38;1.70;;;1.60;;
5819;SDS011;2936;47.348;9.640;2022-08-21T08:15:09;1.90;;;1.27;;
5819;SDS011;2936;47.348;9.640;2022-08-21T08:17:36;2.27;;;1.30;;
5819;SDS011;2936;47.348;9.640;2022-08-21T08:20:04;1.53;;;1.43;;
5819;SDS011;2936;47.348;9.640;2022-08-21T08:22:33;1.30;;;1.20;;
5819;SDS011;2936;47.348;9.640;2022-08-21T08:25:00;1.50;;;1.40;;
5819;SDS011;2936;47.348;9.640;2022-08-21T08:27:29;6.10;;;1.70;;
5819;SDS011;2936;47.348;9.640;2022-08-21T08:29:56;1.20;;;1.20;;
5819;SDS011;2936;47.348;9.640;2022-08-21T08:32:25;1.43;;;1.40;;
5819;SDS011;2936;47.348;9.640;2022-08-21T08:34:52;1.30;;;1.30;;
5819;SDS011;2936;47.348;9.640;2022-08-21T08:37:20;1.60;;;1.50;;
5819;SDS011;2936;47.348;9.640;2022-08-21T08:39:47;1.43;;;1.43;;
5819;SDS011;2936;47.348;9.640;2022-08-21T08:42:16;1.67;;;1.57;;
5819;SDS011;2936;47.348;9.640;2022-08-21T08:44:45;1.23;;;1.20;;
5819;SDS011;2936;47.348;9.640;2022-08-21T08:47:13;1.40;;;1.27;;
5819;SDS011;2936;47.348;9.640;2022-08-21T08:49:45;1.27;;;1.10;;
5819;SDS011;2936;47.348;9.640;2022-08-21T08:52:17;1.40;;;1.30;;
5819;SDS011;2936;47.348;9.640;2022-08-21T08:54:47;1.40;;;1.40;;
5819;SDS011;2936;47.348;9.640;2022-08-21T08:57:17;2.07;;;1.27;;
5819;SDS011;2936;47.348;9.640;2022-08-21T08:59:46;6.33;;;1.33;;
5819;SDS011;2936;47.348;9.640;2022-08-21T09:02:15;1.63;;;1.43;;
5819;SDS011;2936;47.348;9.640;2022-08-21T09:04:45;1.83;;;1.73;;
5819;SDS011;2936;47.348;9.640;2022-08-21T09:07:16;2.53;;;2.33;;
5819;SDS011;2936;47.348;9.640;2022-08-21T09:09:51;2.20;;;2.10;;
5819;SDS011;2936;47.348;9.640;2022-08-21T09:12:25;1.60;;;1.50;;
5819;SDS011;2936;47.348;9.640;2022-08-21T09:14:58;1.93;;;1.83;;
5819;SDS011;2936;47.348;9.640;2022-08-21T09:17:32;1.73;;;1.63;;
5819;SDS011;2936;47.348;9.640;2022-08-21T09:20:14;2.13;;;1.80;;
5819;SDS011;2936;47.348;9.640;2022-08-21T09:22:48;1.50;;;1.40;;
5819;SDS011;2936;47.348;9.640;2022-08-21T09:25:20;1.43;;;1.43;;
5819;SDS011;2936;47.348;9.640;2022-08-21T09:27:48;1.70;;;1.60;;
5819;SDS011;2936;47.348;9.640;2022-08-21T09:30:16;1.60;;;1.50;;
5819;SDS011;2936;47.348;9.640;2022-08-21T09:32:44;3.00;;;1.60;;
5819;SDS011;2936;47.348;9.640;2022-08-21T09:35:14;1.40;;;1.40;;
5819;SDS011;2936;47.348;9.640;2022-08-21T09:37:47;1.77;;;1.67;;
5819;SDS011;2936;47.348;9.640;2022-08-21T09:40:23;1.43;;;1.43;;
5819;SDS011;2936;47.348;9.640;2022-08-21T09:42:56;1.10;;;1.10;;
5819;SDS011;2936;47.348;9.640;2022-08-21T09:45:24;1.70;;;1.60;;
5819;SDS011;2936;47.348;9.640;2022-08-21T09:47:51;1.50;;;1.50;;
5819;SDS011;2936;47.348;9.640;2022-08-21T09:50:21;1.70;;;1.60;;
5819;SDS011;2936;47.348;9.640;2022-08-21T09:52:51;1.47;;;1.47;;
5819;SDS011;2936;47.348;9.640;2022-08-21T09:55:20;3.27;;;3.17;;
5819;SDS011;2936;47.348;9.640;2022-08-21T09:58:06;1.70;;;1.60;;
5819;SDS011;2936;47.348;9.640;2022-08-21T10:00:34;1.90;;;1.80;;
5819;SDS011;2936;47.348;9.640;2022-08-21T10:03:08;2.10;;;2.00;;
5819;SDS011;2936;47.348;9.640;2022-08-21T10:05:38;1.70;;;1.60;;
5819;SDS011;2936;47.348;9.640;2022-08-21T10:08:15;1.70;;;1.60;;
5819;SDS011;2936;47.348;9.640;2022-08-21T10:10:43;1.77;;;1.67;;
5819;SDS011;2936;47.348;9.640;2022-08-21T10:13:12;1.90;;;1.80;;
5819;SDS011;2936;47.348;9.640;2022-08-21T10:15:47;2.73;;;2.20;;
5819;SDS011;2936;47.348;9.640;2022-08-21T10:18:20;1.87;;;1.77;;
5819;SDS011;2936;47.348;9.640;2022-08-21T10:20:51;1.77;;;1.67;;
5819;SDS011;2936;47.348;9.640;2022-08-21T10:23:27;2.10;;;2.00;;
5819;SDS011;2936;47.348;9.640;2022-08-21T10:25:57;1.23;;;1.23;;
5819;SDS011;2936;47.348;9.640;2022-08-21T10:28:27;2.80;;;1.80;;
5819;SDS011;2936;47.348;9.640;2022-08-21T10:31:00;1.70;;;1.60;;
5819;SDS011;2936;47.348;9.640;2022-08-21T10:33:32;2.10;;;2.00;;
5819;SDS011;2936;47.348;9.640;2022-08-21T10:36:09;1.97;;;1.87;;
5819;SDS011;2936;47.348;9.640;2022-08-21T10:38:43;2.90;;;1.70;;
5819;SDS011;2936;47.348;9.640;2022-08-21T10:41:14;2.17;;;2.07;;
5819;SDS011;2936;47.348;9.640;2022-08-21T10:43:46;2.40;;;2.20;;
5819;SDS011;2936;47.348;9.640;2022-08-21T10:46:18;6.70;;;2.57;;
5819;SDS011;2936;47.348;9.640;2022-08-21T10:48:51;1.93;;;1.83;;
5819;SDS011;2936;47.348;9.640;2022-08-21T10:51:23;2.50;;;2.30;;
5819;SDS011;2936;47.348;9.640;2022-08-21T10:53:55;2.53;;;2.43;;
5819;SDS011;2936;47.348;9.640;2022-08-21T10:56:26;2.53;;;2.43;;
5819;SDS011;2936;47.348;9.640;2022-08-21T10:59:08;2.70;;;1.90;;
5819;SDS011;2936;47.348;9.640;2022-08-21T11:01:41;1.90;;;1.80;;
5819;SDS011;2936;47.348;9.640;2022-08-21T11:04:12;2.07;;;1.97;;
5819;SDS011;2936;47.348;9.640;2022-08-21T11:06:42;2.43;;;2.33;;
5819;SDS011;2936;47.348;9.640;2022-08-21T11:09:13;2.50;;;1.93;;
5819;SDS011;2936;47.348;9.640;2022-08-21T11:11:41;1.70;;;1.60;;
5819;SDS011;2936;47.348;9.640;2022-08-21T11:14:13;2.07;;;1.97;;
5819;SDS011;2936;47.348;9.640;2022-08-21T11:16:45;2.30;;;1.47;;
5819;SDS011;2936;47.348;9.640;2022-08-21T11:19:17;1.93;;;1.83;;
5819;SDS011;2936;47.348;9.640;2022-08-21T11:21:48;2.50;;;2.03;;
5819;SDS011;2936;47.348;9.640;2022-08-21T11:24:17;1.83;;;1.73;;
5819;SDS011;2936;47.348;9.640;2022-08-21T11:26:49;3.57;;;3.37;;
5819;SDS011;2936;47.348;9.640;2022-08-21T11:29:19;2.50;;;1.70;;
5819;SDS011;2936;47.348;9.640;2022-08-21T11:31:51;1.90;;;1.73;;
5819;SDS011;2936;47.348;9.640;2022-08-21T11:34:23;2.97;;;1.73;;
5819;SDS011;2936;47.348;9.640;2022-08-21T11:36:57;1.83;;;1.73;;
5819;SDS011;2936;47.348;9.640;2022-08-21T11:39:30;12.70;;;1.90;;
5819;SDS011;2936;47.348;9.640;2022-08-21T11:42:04;2.07;;;1.90;;
5819;SDS011;2936;47.348;9.640;2022-08-21T11:44:38;3.63;;;2.10;;
5819;SDS011;2936;47.348;9.640;2022-08-21T11:47:11;4.03;;;1.50;;
5819;SDS011;2936;47.348;9.640;2022-08-21T11:49:44;1.73;;;1.63;;
5819;SDS011;2936;47.348;9.640;2022-08-21T11:52:16;1.80;;;1.70;;
5819;SDS011;2936;47.348;9.640;2022-08-21T11:54:46;1.70;;;1.60;;
5819;SDS011;2936;47.348;9.640;2022-08-21T11:57:17;2.90;;;1.87;;
5819;SDS011;2936;47.348;9.640;2022-08-21T11:59:51;2.67;;;2.20;;
5819;SDS011;2936;47.348;9.640;2022-08-21T12:02:21;4.37;;;2.00;;
5819;SDS011;2936;47.348;9.640;2022-08-21T12:04:49;2.00;;;1.90;;
5819;SDS011;2936;47.348;9.640;2022-08-21T12:07:30;2.53;;;1.80;;
5819;SDS011;2936;47.348;9.640;2022-08-21T12:09:57;1.93;;;1.83;;
5819;SDS011;2936;47.348;9.640;2022-08-21T12:12:26;3.40;;;1.80;;
5819;SDS011;2936;47.348;9.640;2022-08-21T12:15:04;3.37;;;2.20;;
5819;SDS011;2936;47.348;9.640;2022-08-21T12:17:35;1.90;;;1.80;;
5819;SDS011;2936;47.348;9.640;2022-08-21T12:20:15;1.13;;;1.13;;
5819;SDS011;2936;47.348;9.640;2022-08-21T12:22:49;1.70;;;1.60;;
5819;SDS011;2936;47.348;9.640;2022-08-21T12:25:19;2.00;;;1.37;;
5819;SDS011;2936;47.348;9.640;2022-08-21T12:27:49;1.70;;;1.60;;
5819;SDS011;2936;47.348;9.640;2022-08-21T12:30:22;2.03;;;1.90;;
5819;SDS011;2936;47.348;9.640;2022-08-21T12:32:54;2.90;;;1.70;;
5819;SDS011;2936;47.348;9.640;2022-08-21T12:35:24;2.83;;;1.70;;
5819;SDS011;2936;47.348;9.640;2022-08-21T12:37:56;2.93;;;2.00;;
5819;SDS011;2936;47.348;9.640;2022-08-21T12:40:25;2.50;;;1.70;;
5819;SDS011;2936;47.348;9.640;2022-08-21T12:42:53;1.30;;;1.20;;
5819;SDS011;2936;47.348;9.640;2022-08-21T12:45:22;1.70;;;1.60;;
5819;SDS011;2936;47.348;9.640;2022-08-21T12:47:54;1.60;;;1.50;;
5819;SDS011;2936;47.348;9.640;2022-08-21T12:50:24;3.00;;;2.33;;
5819;SDS011;2936;47.348;9.640;2022-08-21T12:52:55;2.90;;;1.90;;
5819;SDS011;2936;47.348;9.640;2022-08-21T12:55:26;2.10;;;1.63;;
5819;SDS011;2936;47.348;9.640;2022-08-21T12:57:54;1.60;;;1.50;;
5819;SDS011;2936;47.348;9.640;2022-08-21T13:00:22;1.90;;;1.40;;
5819;SDS011;2936;47.348;9.640;2022-08-21T13:02:50;1.20;;;1.20;;
5819;SDS011;2936;47.348;9.640;2022-08-21T13:05:26;1.80;;;1.70;;
5819;SDS011;2936;47.348;9.640;2022-08-21T13:07:56;2.70;;;1.40;;
5819;SDS011;2936;47.348;9.640;2022-08-21T13:10:24;1.47;;;1.37;;
5819;SDS011;2936;47.348;9.640;2022-08-21T13:12:53;2.53;;;1.60;;
5819;SDS011;2936;47.348;9.640;2022-08-21T13:15:25;2.23;;;1.60;;
5819;SDS011;2936;47.348;9.640;2022-08-21T13:17:53;1.70;;;1.30;;
5819;SDS011;2936;47.348;9.640;2022-08-21T13:20:27;3.00;;;1.50;;
5819;SDS011;2936;47.348;9.640;2022-08-21T13:22:56;2.03;;;1.60;;
5819;SDS011;2936;47.348;9.640;2022-08-21T13:25:25;4.30;;;1.40;;
5819;SDS011;2936;47.348;9.640;2022-08-21T13:27:58;1.40;;;1.30;;
5819;SDS011;2936;47.348;9.640;2022-08-21T13:30:25;1.60;;;1.50;;
5819;SDS011;2936;47.348;9.640;2022-08-21T13:32:55;1.80;;;1.70;;
5819;SDS011;2936;47.348;9.640;2022-08-21T13:35:24;1.70;;;1.60;;
5819;SDS011;2936;47.348;9.640;2022-08-21T13:37:53;1.23;;;1.23;;
5819;SDS011;2936;47.348;9.640;2022-08-21T13:40:25;3.83;;;1.40;;
5819;SDS011;2936;47.348;9.640;2022-08-21T13:42:53;1.40;;;1.30;;
5819;SDS011;2936;47.348;9.640;2022-08-21T13:45:23;1.67;;;1.57;;
5819;SDS011;2936;47.348;9.640;2022-08-21T13:47:51;1.87;;;1.77;;
5819;SDS011;2936;47.348;9.640;2022-08-21T13:50:19;1.80;;;1.23;;
5819;SDS011;2936;47.348;9.640;2022-08-21T13:52:49;1.13;;;1.10;;
5819;SDS011;2936;47.348;9.640;2022-08-21T13:55:17;1.87;;;1.30;;
5819;SDS011;2936;47.348;9.640;2022-08-21T13:57:47;0.90;;;0.90;;
5819;SDS011;2936;47.348;9.640;2022-08-21T14:00:16;1.40;;;1.30;;
5819;SDS011;2936;47.348;9.640;2022-08-21T14:02:45;1.70;;;1.60;;
5819;SDS011;2936;47.348;9.640;2022-08-21T14:05:18;1.43;;;1.33;;
5819;SDS011;2936;47.348;9.640;2022-08-21T14:07:46;1.93;;;1.57;;
5819;SDS011;2936;47.348;9.640;2022-08-21T14:10:15;1.73;;;1.60;;
5819;SDS011;2936;47.348;9.640;2022-08-21T14:12:47;1.30;;;1.20;;
5819;SDS011;2936;47.348;9.640;2022-08-21T14:15:18;1.13;;;1.13;;
5819;SDS011;2936;47.348;9.640;2022-08-21T14:17:46;1.30;;;1.20;;
5819;SDS011;2936;47.348;9.640;2022-08-21T14:20:24;1.40;;;1.30;;
5819;SDS011;2936;47.348;9.640;2022-08-21T14:22:52;1.40;;;1.33;;
5819;SDS011;2936;47.348;9.640;2022-08-21T14:25:26;1.53;;;1.40;;
5819;SDS011;2936;47.348;9.640;2022-08-21T14:27:56;1.73;;;1.13;;
5819;SDS011;2936;47.348;9.640;2022-08-21T14:30:28;1.53;;;1.40;;
5819;SDS011;2936;47.348;9.640;2022-08-21T14:32:56;2.10;;;2.00;;
5819;SDS011;2936;47.348;9.640;2022-08-21T14:35:24;1.50;;;1.40;;
5819;SDS011;2936;47.348;9.640;2022-08-21T14:37:51;1.17;;;1.17;;
5819;SDS011;2936;47.348;9.640;2022-08-21T14:40:20;1.87;;;1.00;;
5819;SDS011;2936;47.348;9.640;2022-08-21T14:42:48;1.00;;;1.00;;
5819;SDS011;2936;47.348;9.640;2022-08-21T14:45:16;1.37;;;0.90;;
5819;SDS011;2936;47.348;9.640;2022-08-21T14:47:46;1.23;;;1.13;;
5819;SDS011;2936;47.348;9.640;2022-08-21T14:50:13;1.40;;;1.30;;
5819;SDS011;2936;47.348;9.640;2022-08-21T14:52:41;1.93;;;1.60;;
5819;SDS011;2936;47.348;9.640;2022-08-21T14:55:14;1.13;;;1.13;;
5819;SDS011;2936;47.348;9.640;2022-08-21T14:57:41;3.47;;;1.43;;
5819;SDS011;2936;47.348;9.640;2022-08-21T15:00:12;1.23;;;1.13;;
5819;SDS011;2936;47.348;9.640;2022-08-21T15:02:41;1.07;;;1.07;;
5819;SDS011;2936;47.348;9.640;2022-08-21T15:05:11;1.53;;;1.13;;
5819;SDS011;2936;47.348;9.640;2022-08-21T15:07:38;1.40;;;1.30;;
5819;SDS011;2936;47.348;9.640;2022-08-21T15:10:06;2.03;;;1.53;;
5819;SDS011;2936;47.348;9.640;2022-08-21T15:12:34;1.30;;;1.20;;
5819;SDS011;2936;47.348;9.640;2022-08-21T15:15:02;2.50;;;1.10;;
5819;SDS011;2936;47.348;9.640;2022-08-21T15:17:29;2.00;;;1.50;;
5819;SDS011;2936;47.348;9.640;2022-08-21T15:19:56;1.70;;;1.60;;
5819;SDS011;2936;47.348;9.640;2022-08-21T15:22:25;1.20;;;1.20;;
5819;SDS011;2936;47.348;9.640;2022-08-21T15:24:53;1.30;;;1.30;;
5819;SDS011;2936;47.348;9.640;2022-08-21T15:27:20;4.20;;;1.40;;
5819;SDS011;2936;47.348;9.640;2022-08-21T15:29:48;1.43;;;1.33;;